createdAt,value
2023-04-18T00:02:20.458Z,57.12
2023-04-18T00:04:47.253Z,57.22
2023-04-18T00:07:17.596Z,56.34
2023-04-18T00:09:44.664Z,56.51
2023-04-18T00:12:11.623Z,56.61
2023-04-18T00:14:38.348Z,56.99
2023-04-18T00:17:08.662Z,57.16
2023-04-18T00:19:37.345Z,56.81
2023-04-18T00:22:04.026Z,56.85
2023-04-18T00:24:31.443Z,56.65
2023-04-18T00:26:58.319Z,56.95
2023-04-18T00:29:25.255Z,56.78
2023-04-18T00:31:53.436Z,56.90
2023-04-18T00:34:20.036Z,57.81
2023-04-18T00:36:46.722Z,58.12
2023-04-18T00:39:13.462Z,57.70
2023-04-18T00:41:40.203Z,57.20
2023-04-18T00:44:07.002Z,57.24
2023-04-18T00:46:33.884Z,57.64
2023-04-18T00:49:00.749Z,57.75
2023-04-18T00:51:27.931Z,57.93
2023-04-18T00:53:54.757Z,57.71
2023-04-18T00:56:23.679Z,58.29
2023-04-18T00:58:51.127Z,57.67
2023-04-18T01:01:18.283Z,57.75
2023-04-18T01:03:45.188Z,58.17
2023-04-18T01:06:15.112Z,57.59
2023-04-18T01:08:42.729Z,58.00
2023-04-18T01:11:09.395Z,58.60
2023-04-18T01:13:35.997Z,58.26
2023-04-18T01:16:03.914Z,58.63
2023-04-18T01:18:31.544Z,58.72
2023-04-18T01:21:00.511Z,59.65
2023-04-18T01:23:27.223Z,59.06
2023-04-18T01:25:53.873Z,58.50
2023-04-18T01:28:23.746Z,59.33
2023-04-18T01:30:50.516Z,58.87
2023-04-18T01:33:17.461Z,59.09
2023-04-18T01:35:47.503Z,59.21
2023-04-18T01:38:14.197Z,59.43
2023-04-18T01:40:40.853Z,58.88
2023-04-18T01:43:07.503Z,58.92
2023-04-18T01:45:37.004Z,58.85
2023-04-18T01:48:03.841Z,58.43
2023-04-18T01:50:30.608Z,59.03
2023-04-18T01:52:57.269Z,58.68
2023-04-18T01:55:23.924Z,58.63
2023-04-18T01:57:50.993Z,58.55
2023-04-18T02:00:19.741Z,58.59
2023-04-18T02:02:46.555Z,59.01
2023-04-18T02:05:13.489Z,58.52
2023-04-18T02:07:41.026Z,59.02
2023-04-18T02:10:10.418Z,59.06
2023-04-18T02:12:39.315Z,58.96
2023-04-18T02:15:07.356Z,58.53
2023-04-18T02:17:37.862Z,59.30
2023-04-18T02:20:05.017Z,59.71
2023-04-18T02:22:33.045Z,59.88
2023-04-18T02:25:02.334Z,59.70
2023-04-18T02:27:33.931Z,59.57
2023-04-18T02:30:02.532Z,59.34
2023-04-18T02:32:32.156Z,59.91
2023-04-18T02:34:58.842Z,59.77
2023-04-18T02:37:25.587Z,59.44
2023-04-18T02:39:52.269Z,59.85
2023-04-18T02:42:19.722Z,59.52
2023-04-18T02:44:46.511Z,59.14
2023-04-18T02:47:13.234Z,59.82
2023-04-18T02:49:42.412Z,59.79
2023-04-18T02:52:09.089Z,59.88
2023-04-18T02:54:35.904Z,60.41
2023-04-18T02:57:10.076Z,59.86
2023-04-18T02:59:42.562Z,60.76
2023-04-18T03:02:32.486Z,60.91
2023-04-18T03:05:07.735Z,60.08
2023-04-18T03:07:35.971Z,60.01
2023-04-18T03:10:03.864Z,60.86
2023-04-18T03:12:34.110Z,60.36
2023-04-18T03:15:01.666Z,60.96
2023-04-18T03:17:32.977Z,60.65
2023-04-18T03:20:00.301Z,61.32
2023-04-18T03:22:27.005Z,61.03
2023-04-18T03:24:56.301Z,61.11
2023-04-18T03:27:35.437Z,61.88
2023-04-18T03:30:02.742Z,62.06
2023-04-18T03:32:33.932Z,62.06
2023-04-18T03:35:01.271Z,62.12
2023-04-18T03:37:31.564Z,62.14
2023-04-18T03:39:59.746Z,62.72
2023-04-18T03:42:29.769Z,62.71
2023-04-18T03:44:56.892Z,62.61
2023-04-18T03:47:23.766Z,62.36
2023-04-18T03:49:55.581Z,62.19
2023-04-18T03:52:24.382Z,62.04
2023-04-18T03:54:51.065Z,63.12
2023-04-18T03:57:20.783Z,63.05
2023-04-18T03:59:47.997Z,63.38
2023-04-18T04:02:14.914Z,63.39
2023-04-18T04:04:42.422Z,62.99
2023-04-18T04:07:10.840Z,63.71
2023-04-18T04:09:37.927Z,63.86
2023-04-18T04:12:06.306Z,63.94
2023-04-18T04:14:33.785Z,64.63
2023-04-18T04:17:00.585Z,64.77
2023-04-18T04:19:29.474Z,64.62
2023-04-18T04:22:09.831Z,65.61
2023-04-18T04:24:38.640Z,65.38
2023-04-18T04:27:08.034Z,65.45
2023-04-18T04:29:38.578Z,65.47
2023-04-18T04:32:06.495Z,65.67
2023-04-18T04:34:37.041Z,65.86
2023-04-18T04:37:06.079Z,66.31
2023-04-18T04:39:39.306Z,66.07
2023-04-18T04:42:35.788Z,65.99
2023-04-18T04:45:10.367Z,66.38
2023-04-18T04:47:37.368Z,65.81
2023-04-18T04:50:06.254Z,65.76
2023-04-18T04:52:33.962Z,66.05
2023-04-18T04:55:00.984Z,66.68
2023-04-18T04:57:31.541Z,66.95
2023-04-18T04:59:58.170Z,67.28
2023-04-18T05:02:25.151Z,67.31
2023-04-18T05:04:51.874Z,67.21
2023-04-18T05:07:18.550Z,67.13
2023-04-18T05:09:45.179Z,66.96
2023-04-18T05:12:11.876Z,67.24
2023-04-18T05:14:38.562Z,66.95
2023-04-18T05:17:05.404Z,67.03
2023-04-18T05:19:32.010Z,67.01
2023-04-18T05:21:58.683Z,67.55
2023-04-18T05:24:25.377Z,67.97
2023-04-18T05:26:52.620Z,67.94
2023-04-18T05:29:19.417Z,67.33
2023-04-18T05:31:46.009Z,67.61
2023-04-18T05:34:12.835Z,67.55
2023-04-18T05:36:39.752Z,67.38
2023-04-18T05:39:06.539Z,67.06
2023-04-18T05:41:33.180Z,67.60
2023-04-18T05:44:05.347Z,67.34
2023-04-18T05:46:43.866Z,67.14
2023-04-18T05:49:10.767Z,66.88
2023-04-18T05:51:37.770Z,66.27
2023-04-18T05:54:04.564Z,66.64
2023-04-18T05:56:31.293Z,66.54
2023-04-18T05:58:57.931Z,66.78
2023-04-18T06:01:24.622Z,66.80
2023-04-18T06:03:51.556Z,67.04
2023-04-18T06:06:18.409Z,67.09
2023-04-18T06:08:45.084Z,66.52
2023-04-18T06:11:11.817Z,67.08
2023-04-18T06:13:38.488Z,66.80
2023-04-18T06:16:05.433Z,66.74
2023-04-18T06:18:32.685Z,66.57
2023-04-18T06:20:59.459Z,66.95
2023-04-18T06:23:26.119Z,67.14
2023-04-18T06:25:52.756Z,67.10
2023-04-18T06:28:19.362Z,67.11
2023-04-18T06:30:46.074Z,67.00
2023-04-18T06:33:12.997Z,67.75
2023-04-18T06:35:40.220Z,68.67
2023-04-18T06:38:06.968Z,68.90
2023-04-18T06:40:33.668Z,68.69
2023-04-18T06:43:00.461Z,69.01
2023-04-18T06:45:30.318Z,69.74
2023-04-18T06:47:59.513Z,69.97
2023-04-18T06:50:26.813Z,69.77
2023-04-18T06:52:53.438Z,69.62
2023-04-18T06:55:20.363Z,69.46
2023-04-18T06:57:47.801Z,69.33
2023-04-18T07:00:15.156Z,68.66
2023-04-18T07:02:42.177Z,69.91
2023-04-18T07:05:09.131Z,69.50
2023-04-18T07:07:35.808Z,69.81
2023-04-18T07:10:02.495Z,69.32
2023-04-18T07:12:31.442Z,69.92
2023-04-18T07:14:58.146Z,69.22
2023-04-18T07:17:24.809Z,69.16
2023-04-18T07:19:51.536Z,69.35
2023-04-18T07:22:18.164Z,69.46
2023-04-18T07:24:44.774Z,69.08
2023-04-18T07:27:11.672Z,69.62
2023-04-18T07:29:38.455Z,68.90
2023-04-18T07:32:06.883Z,69.60
2023-04-18T07:34:36.078Z,69.83
2023-04-18T07:37:03.029Z,69.26
2023-04-18T07:39:31.965Z,68.66
2023-04-18T07:41:58.843Z,68.91
2023-04-18T07:44:25.524Z,69.93
2023-04-18T07:46:52.429Z,69.14
2023-04-18T07:49:19.099Z,69.13
2023-04-18T07:51:45.784Z,68.82
2023-04-18T07:54:12.413Z,69.26
2023-04-18T07:56:39.159Z,68.44
2023-04-18T07:59:05.807Z,68.13
2023-04-18T08:01:32.635Z,68.84
2023-04-18T08:04:01.615Z,68.11
2023-04-18T08:06:29.172Z,68.68
2023-04-18T08:08:55.889Z,69.19
2023-04-18T08:11:22.599Z,68.96
2023-04-18T08:13:49.287Z,69.41
2023-04-18T08:16:17.478Z,69.07
2023-04-18T08:18:44.384Z,69.38
2023-04-18T08:21:11.246Z,69.30
2023-04-18T08:23:37.987Z,68.86
2023-04-18T08:26:04.668Z,68.29
2023-04-18T08:28:31.267Z,66.78
2023-04-18T08:30:58.033Z,65.67
2023-04-18T08:33:24.847Z,64.97
2023-04-18T08:35:51.796Z,64.07
2023-04-18T08:38:19.185Z,64.04
2023-04-18T08:40:45.977Z,64.77
2023-04-18T08:43:14.824Z,64.97
2023-04-18T08:45:42.761Z,65.67
2023-04-18T08:48:17.571Z,65.44
2023-04-18T08:50:44.955Z,66.83
2023-04-18T08:53:11.972Z,67.83
2023-04-18T08:55:38.772Z,67.79
2023-04-18T08:58:06.838Z,68.30
2023-04-18T09:00:34.084Z,68.45
2023-04-18T09:03:03.808Z,68.29
2023-04-18T09:05:31.238Z,68.01
2023-04-18T09:07:58.088Z,64.89
2023-04-18T09:10:29.781Z,64.63
2023-04-18T09:12:58.198Z,62.67
2023-04-18T09:15:29.313Z,62.40
2023-04-18T09:18:02.654Z,61.14
2023-04-18T09:20:35.612Z,60.55
2023-04-18T09:23:11.204Z,59.93
2023-04-18T09:25:49.410Z,61.76
2023-04-18T09:28:25.132Z,61.48
2023-04-18T09:30:52.543Z,62.51
2023-04-18T09:33:29.561Z,63.22
2023-04-18T09:35:57.168Z,63.93
2023-04-18T09:38:40.813Z,64.57
2023-04-18T09:41:09.220Z,65.57
2023-04-18T09:43:36.063Z,66.22
2023-04-18T09:46:04.423Z,65.93
2023-04-18T09:48:31.403Z,65.65
2023-04-18T09:51:01.345Z,66.09
2023-04-18T09:53:28.414Z,66.05
2023-04-18T09:55:57.692Z,66.22
2023-04-18T09:58:27.544Z,65.29
2023-04-18T10:00:55.637Z,64.91
2023-04-18T10:03:28.665Z,65.22
2023-04-18T10:05:57.761Z,65.32
2023-04-18T10:08:26.139Z,65.44
2023-04-18T10:10:55.790Z,65.87
2023-04-18T10:13:23.846Z,65.34
2023-04-18T10:15:52.352Z,65.35
2023-04-18T10:18:23.229Z,64.59
2023-04-18T10:20:50.199Z,64.75
2023-04-18T10:23:35.638Z,62.90
2023-04-18T10:26:04.873Z,60.92
2023-04-18T10:29:10.246Z,62.50
2023-04-18T10:31:39.040Z,63.05
2023-04-18T10:34:07.007Z,63.32
2023-04-18T10:36:34.021Z,63.97
2023-04-18T10:39:22.369Z,62.93
2023-04-18T10:41:51.117Z,62.81
2023-04-18T10:44:19.771Z,62.63
2023-04-18T10:46:52.534Z,61.92
2023-04-18T10:49:28.320Z,61.50
2023-04-18T10:51:58.698Z,62.37
2023-04-18T10:54:46.353Z,61.46
2023-04-18T10:57:13.812Z,61.51
2023-04-18T10:59:47.999Z,62.11
2023-04-18T11:02:29.980Z,61.73
2023-04-18T11:04:58.579Z,61.13
2023-04-18T11:07:38.122Z,60.34
2023-04-18T11:10:07.449Z,61.42
2023-04-18T11:12:36.825Z,58.98
2023-04-18T11:15:10.676Z,58.85
2023-04-18T11:17:40.007Z,58.08
2023-04-18T11:20:14.932Z,58.00
2023-04-18T11:22:59.335Z,57.49
2023-04-18T11:25:36.323Z,57.05
2023-04-18T11:28:04.519Z,55.38
2023-04-18T11:30:41.563Z,55.37
2023-04-18T11:33:12.769Z,54.99
2023-04-18T11:35:41.110Z,55.64
2023-04-18T11:38:10.297Z,55.02
2023-04-18T11:40:37.454Z,54.13
2023-04-18T11:43:06.209Z,55.50
2023-04-18T11:45:33.427Z,56.67
2023-04-18T11:48:00.776Z,55.51
2023-04-18T11:50:27.699Z,53.87
2023-04-18T11:52:55.322Z,54.47
2023-04-18T11:55:24.788Z,55.48
2023-04-18T11:57:56.870Z,55.64
2023-04-18T12:00:35.803Z,55.22
2023-04-18T12:03:05.251Z,55.64
2023-04-18T12:05:36.305Z,56.00
2023-04-18T12:08:11.787Z,55.98
2023-04-18T12:10:46.788Z,55.18
2023-04-18T12:13:13.552Z,56.00
2023-04-18T12:15:43.520Z,56.62
2023-04-18T12:18:12.350Z,56.65
2023-04-18T12:20:45.894Z,55.43
2023-04-18T12:23:29.704Z,55.74
2023-04-18T12:26:06.104Z,55.29
2023-04-18T12:28:34.595Z,55.57
2023-04-18T12:31:02.645Z,55.70
2023-04-18T12:33:30.671Z,56.89
2023-04-18T12:35:57.391Z,57.28
2023-04-18T12:38:24.149Z,57.43
2023-04-18T12:40:52.055Z,56.94
2023-04-18T12:43:19.571Z,57.56
2023-04-18T12:45:46.860Z,58.51
2023-04-18T12:48:13.933Z,58.15
2023-04-18T12:50:40.867Z,57.80
2023-04-18T12:53:07.814Z,57.59
2023-04-18T12:55:34.567Z,56.61
2023-04-18T12:58:01.358Z,56.38
2023-04-18T13:00:31.095Z,55.34
2023-04-18T13:02:58.987Z,54.77
2023-04-18T13:05:31.653Z,55.00
2023-04-18T13:08:15.153Z,55.11
2023-04-18T13:10:43.632Z,55.60
2023-04-18T13:13:10.405Z,55.74
2023-04-18T13:15:37.119Z,55.36
2023-04-18T13:18:06.335Z,54.71
2023-04-18T13:20:34.156Z,55.12
2023-04-18T13:23:04.711Z,55.05
2023-04-18T13:25:31.677Z,55.67
2023-04-18T13:27:58.899Z,54.82
2023-04-18T13:30:25.856Z,54.84
2023-04-18T13:32:52.700Z,55.54
2023-04-18T13:35:19.584Z,55.46
2023-04-18T13:37:46.424Z,55.33
2023-04-18T13:40:13.554Z,55.72
2023-04-18T13:42:40.375Z,55.93
2023-04-18T13:45:07.527Z,55.54
2023-04-18T13:47:35.125Z,55.62
2023-04-18T13:50:02.041Z,55.70
2023-04-18T13:52:30.961Z,55.63
2023-04-18T13:54:57.635Z,55.32
2023-04-18T13:57:24.266Z,55.82
2023-04-18T13:59:51.024Z,55.93
2023-04-18T14:02:17.807Z,54.93
2023-04-18T14:04:44.846Z,54.43
2023-04-18T14:07:11.573Z,54.42
2023-04-18T14:09:38.235Z,54.66
2023-04-18T14:12:05.144Z,53.49
2023-04-18T14:14:31.797Z,53.44
2023-04-18T14:16:58.501Z,54.88
2023-04-18T14:19:25.242Z,55.35
2023-04-18T14:21:52.069Z,55.42
2023-04-18T14:24:18.840Z,55.65
2023-04-18T14:26:45.673Z,55.00
2023-04-18T14:29:14.172Z,54.92
2023-04-18T14:31:41.292Z,54.42
2023-04-18T14:34:09.482Z,53.72
2023-04-18T14:36:36.112Z,52.59
2023-04-18T14:39:03.504Z,52.67
2023-04-18T14:41:30.368Z,53.61
2023-04-18T14:43:57.219Z,53.21
2023-04-18T14:46:24.193Z,52.62
2023-04-18T14:48:50.957Z,52.84
2023-04-18T14:51:17.652Z,52.41
2023-04-18T14:53:44.844Z,52.60
2023-04-18T14:56:11.713Z,53.20
2023-04-18T14:58:38.530Z,53.25
2023-04-18T15:01:05.708Z,52.11
2023-04-18T15:03:33.157Z,40.84
2023-04-18T15:06:00.517Z,46.35
2023-04-18T15:08:30.322Z,43.92
2023-04-18T15:10:58.773Z,42.10
2023-04-18T15:13:25.547Z,43.53
2023-04-18T15:15:53.561Z,43.82
2023-04-18T15:18:20.653Z,42.16
2023-04-18T15:20:47.538Z,45.80
2023-04-18T15:23:14.682Z,48.37
2023-04-18T15:25:42.621Z,48.53
2023-04-18T15:28:09.456Z,48.15
2023-04-18T15:30:36.442Z,48.61
2023-04-18T15:33:03.396Z,48.61
2023-04-18T15:35:30.182Z,49.39
2023-04-18T15:37:57.415Z,49.03
2023-04-18T15:40:24.420Z,49.01
2023-04-18T15:42:53.491Z,48.36
2023-04-18T15:45:21.304Z,48.88
2023-04-18T15:47:48.156Z,49.22
2023-04-18T15:50:16.118Z,49.53
2023-04-18T15:52:43.284Z,50.85
2023-04-18T15:55:12.281Z,51.33
2023-04-18T15:57:39.933Z,50.96
2023-04-18T16:00:17.293Z,49.50
2023-04-18T16:02:45.140Z,49.92
2023-04-18T16:05:13.086Z,49.55
2023-04-18T16:07:40.544Z,49.26
2023-04-18T16:10:10.042Z,48.87
2023-04-18T16:12:37.977Z,49.16
2023-04-18T16:15:09.521Z,49.99
2023-04-18T16:17:37.453Z,49.39
2023-04-18T16:20:06.215Z,50.62
2023-04-18T16:22:33.482Z,50.69
2023-04-18T16:25:01.943Z,50.43
2023-04-18T16:27:30.609Z,49.97
2023-04-18T16:29:57.329Z,50.62
2023-04-18T16:32:24.033Z,50.31
2023-04-18T16:34:50.916Z,49.43
2023-04-18T16:37:17.768Z,49.63
2023-04-18T16:39:44.615Z,50.05
2023-04-18T16:42:13.357Z,50.10
2023-04-18T16:44:41.579Z,50.01
2023-04-18T16:47:08.456Z,50.78
2023-04-18T16:49:35.629Z,50.46
2023-04-18T16:52:02.345Z,50.49
2023-04-18T16:54:29.455Z,50.42
2023-04-18T16:56:56.942Z,50.44
2023-04-18T16:59:23.827Z,50.16
2023-04-18T17:01:50.546Z,50.33
2023-04-18T17:04:17.585Z,50.36
2023-04-18T17:06:44.597Z,50.17
2023-04-18T17:09:13.585Z,50.50
2023-04-18T17:11:41.143Z,53.66
2023-04-18T17:14:08.602Z,53.90
2023-04-18T17:16:40.028Z,54.59
2023-04-18T17:19:09.076Z,53.33
2023-04-18T17:21:36.654Z,53.18
2023-04-18T17:24:05.745Z,54.42
2023-04-18T17:26:34.071Z,54.23
2023-04-18T17:29:04.324Z,53.40
2023-04-18T17:31:31.743Z,51.61
2023-04-18T17:33:59.406Z,51.18
2023-04-18T17:36:27.175Z,53.95
2023-04-18T17:38:54.005Z,53.02
2023-04-18T17:41:21.844Z,52.78
2023-04-18T17:43:50.806Z,52.82
2023-04-18T17:46:17.705Z,53.66
2023-04-18T17:48:44.559Z,54.55
2023-04-18T17:51:11.407Z,54.60
2023-04-18T17:53:38.439Z,54.71
2023-04-18T17:56:05.310Z,55.14
2023-04-18T17:58:31.925Z,56.21
2023-04-18T18:00:58.835Z,55.79
2023-04-18T18:03:25.692Z,56.09
2023-04-18T18:05:54.927Z,56.46
2023-04-18T18:08:22.652Z,56.88
2023-04-18T18:10:49.683Z,55.92
2023-04-18T18:13:16.490Z,57.04
2023-04-18T18:15:43.269Z,57.25
2023-04-18T18:18:10.463Z,57.88
2023-04-18T18:20:37.171Z,56.94
2023-04-18T18:23:03.848Z,58.29
2023-04-18T18:25:32.209Z,59.26
2023-04-18T18:27:58.896Z,57.79
2023-04-18T18:30:25.672Z,57.64
2023-04-18T18:32:53.310Z,58.76
2023-04-18T18:35:20.083Z,58.76
2023-04-18T18:37:46.734Z,58.26
2023-04-18T18:40:13.574Z,58.79
2023-04-18T18:42:40.534Z,58.76
2023-04-18T18:45:07.998Z,59.00
2023-04-18T18:47:35.809Z,59.33
2023-04-18T18:50:04.496Z,60.20
2023-04-18T18:52:34.249Z,59.96
2023-04-18T18:55:01.306Z,59.41
2023-04-18T18:57:28.180Z,59.96
2023-04-18T18:59:55.918Z,60.08
2023-04-18T19:02:23.153Z,59.06
2023-04-18T19:04:50.217Z,60.18
2023-04-18T19:07:17.002Z,60.00
2023-04-18T19:09:43.731Z,60.51
2023-04-18T19:12:10.503Z,60.08
2023-04-18T19:14:37.385Z,60.46
2023-04-18T19:17:04.873Z,60.82
2023-04-18T19:19:31.642Z,61.47
2023-04-18T19:21:58.522Z,61.13
2023-04-18T19:24:25.288Z,60.71
2023-04-18T19:26:52.176Z,61.75
2023-04-18T19:29:18.979Z,61.22
2023-04-18T19:31:45.747Z,60.97
2023-04-18T19:34:13.385Z,61.22
2023-04-18T19:36:40.288Z,61.50
2023-04-18T19:39:08.034Z,62.04
2023-04-18T19:41:34.704Z,63.02
2023-04-18T19:44:01.376Z,62.89
2023-04-18T19:46:28.139Z,63.05
2023-04-18T19:48:54.789Z,63.33
2023-04-18T19:51:21.746Z,63.48
2023-04-18T19:53:48.606Z,63.33
2023-04-18T19:56:15.350Z,63.75
2023-04-18T19:58:46.497Z,64.46
2023-04-18T20:01:14.577Z,63.71
2023-04-18T20:03:41.843Z,64.37
2023-04-18T20:06:09.207Z,64.02
2023-04-18T20:08:37.963Z,64.10
2023-04-18T20:11:07.908Z,63.78
2023-04-18T20:13:36.674Z,63.82
2023-04-18T20:16:04.933Z,63.99
2023-04-18T20:18:32.116Z,64.72
2023-04-18T20:20:58.928Z,64.56
2023-04-18T20:23:25.869Z,64.64
2023-04-18T20:25:52.678Z,64.69
2023-04-18T20:28:19.472Z,64.83
2023-04-18T20:30:46.293Z,64.61
2023-04-18T20:33:13.062Z,64.50
2023-04-18T20:35:40.536Z,64.71
2023-04-18T20:38:11.107Z,64.82
2023-04-18T20:40:39.042Z,65.13
2023-04-18T20:43:07.881Z,65.45
2023-04-18T20:45:37.363Z,64.98
2023-04-18T20:48:04.777Z,65.34
2023-04-18T20:50:31.571Z,64.89
2023-04-18T20:53:00.306Z,64.94
2023-04-18T20:55:27.504Z,65.14
2023-04-18T20:57:54.479Z,65.86
2023-04-18T21:00:21.801Z,65.42
2023-04-18T21:02:48.897Z,65.65
2023-04-18T21:05:15.748Z,65.74
2023-04-18T21:07:44.025Z,66.31
2023-04-18T21:10:12.137Z,65.97
2023-04-18T21:12:38.941Z,66.14
2023-04-18T21:15:06.334Z,65.64
2023-04-18T21:17:33.115Z,66.44
2023-04-18T21:20:00.178Z,66.53
2023-04-18T21:22:26.904Z,66.47
2023-04-18T21:24:53.604Z,66.71
2023-04-18T21:27:20.473Z,67.05
2023-04-18T21:29:47.859Z,67.71
2023-04-18T21:32:14.591Z,67.19
2023-04-18T21:34:41.602Z,67.06
2023-04-18T21:37:08.453Z,67.01
2023-04-18T21:39:35.090Z,66.97
2023-04-18T21:42:01.957Z,67.78
2023-04-18T21:44:28.782Z,67.13
2023-04-18T21:46:56.358Z,67.36
2023-04-18T21:49:23.087Z,67.49
2023-04-18T21:51:50.151Z,67.42
2023-04-18T21:54:16.989Z,67.34
2023-04-18T21:56:43.766Z,67.29
2023-04-18T21:59:10.537Z,67.88
2023-04-18T22:01:38.275Z,67.98
2023-04-18T22:04:05.886Z,67.39
2023-04-18T22:06:33.389Z,67.84
2023-04-18T22:09:01.139Z,67.68
2023-04-18T22:11:28.573Z,67.45
2023-04-18T22:13:57.988Z,67.46
2023-04-18T22:16:24.849Z,67.78
2023-04-18T22:18:51.893Z,67.74
2023-04-18T22:21:18.703Z,67.77
2023-04-18T22:23:45.640Z,67.05
2023-04-18T22:26:12.396Z,67.35
2023-04-18T22:28:39.058Z,67.60
2023-04-18T22:31:06.102Z,67.84
2023-04-18T22:33:32.907Z,67.63
2023-04-18T22:35:59.636Z,67.66
2023-04-18T22:38:26.480Z,67.26
2023-04-18T22:40:53.207Z,67.56
2023-04-18T22:43:22.897Z,68.52
2023-04-18T22:45:50.367Z,68.58
2023-04-18T22:48:17.203Z,68.09
2023-04-18T22:50:43.938Z,68.90
2023-04-18T22:53:11.292Z,68.69
2023-04-18T22:55:42.759Z,69.14
2023-04-18T22:58:10.579Z,69.14
2023-04-18T23:00:37.681Z,68.05
2023-04-18T23:03:04.776Z,68.95
2023-04-18T23:05:31.716Z,68.43
2023-04-18T23:08:00.371Z,69.13
2023-04-18T23:10:27.850Z,68.92
2023-04-18T23:12:54.519Z,68.98
2023-04-18T23:15:22.827Z,68.78
2023-04-18T23:17:53.157Z,68.35
2023-04-18T23:20:20.849Z,69.47
2023-04-18T23:22:50.126Z,68.79
2023-04-18T23:25:17.566Z,69.05
2023-04-18T23:27:44.280Z,69.04
2023-04-18T23:30:11.571Z,68.56
2023-04-18T23:32:38.266Z,70.01
2023-04-18T23:35:06.194Z,69.52
2023-04-18T23:37:33.480Z,70.08
2023-04-18T23:40:00.365Z,69.92
2023-04-18T23:42:27.287Z,70.24
2023-04-18T23:44:54.477Z,69.81
2023-04-18T23:47:21.771Z,70.23
2023-04-18T23:49:48.492Z,70.10
2023-04-18T23:52:15.361Z,69.72
2023-04-18T23:54:42.108Z,70.34
2023-04-18T23:57:08.788Z,70.41
2023-04-18T23:59:35.418Z,70.40
